createdAt,value
2018-04-07T00:01:17.060Z,63.10
2018-04-07T00:06:27.303Z,64.00
2018-04-07T00:08:54.811Z,63.90
2018-04-07T00:11:22.470Z,63.70
2018-04-07T00:13:50.211Z,63.90
2018-04-07T00:16:17.837Z,63.80
2018-04-07T00:18:51.332Z,64.20
2018-04-07T00:21:19.630Z,64.10
2018-04-07T00:23:48.550Z,64.00
2018-04-07T00:26:16.111Z,63.80
2018-04-07T00:28:43.620Z,63.80
2018-04-07T00:31:11.145Z,63.70
2018-04-07T00:33:38.696Z,63.80
2018-04-07T00:36:06.199Z,63.30
2018-04-07T00:38:33.724Z,63.70
2018-04-07T00:41:01.221Z,63.40
2018-04-07T00:43:28.938Z,63.40
2018-04-07T00:45:56.804Z,63.10
2018-04-07T00:48:24.582Z,63.40
2018-04-07T00:50:58.181Z,64.10
2018-04-07T00:53:25.814Z,64.40
2018-04-07T00:55:53.493Z,64.20
2018-04-07T00:59:11.995Z,64.80
2018-04-07T01:01:39.745Z,65.10
2018-04-07T01:04:08.636Z,65.00
2018-04-07T01:06:36.952Z,65.60
2018-04-07T01:09:20.439Z,65.40
2018-04-07T01:11:48.813Z,66.10
2018-04-07T01:14:23.265Z,65.70
2018-04-07T01:16:57.072Z,65.60
2018-04-07T01:19:24.869Z,65.40
2018-04-07T01:21:58.885Z,65.10
2018-04-07T01:24:26.406Z,65.60
2018-04-07T01:26:54.001Z,66.60
2018-04-07T01:29:21.591Z,65.20
2018-04-07T01:31:49.927Z,64.30
2018-04-07T01:34:19.198Z,64.20
2018-04-07T01:36:46.802Z,64.20
2018-04-07T01:39:14.306Z,64.40
2018-04-07T01:41:41.808Z,64.40
2018-04-07T01:44:09.480Z,64.00
2018-04-07T01:46:37.096Z,64.50
2018-04-07T01:49:04.868Z,64.60
2018-04-07T01:51:32.506Z,63.80
2018-04-07T01:54:00.993Z,66.00
2018-04-07T01:56:38.390Z,66.70
2018-04-07T01:59:06.048Z,66.80
2018-04-07T02:01:45.502Z,66.90
2018-04-07T02:04:16.309Z,66.80
2018-04-07T02:06:44.715Z,67.30
2018-04-07T02:09:22.744Z,67.20
2018-04-07T02:11:50.349Z,67.30
2018-04-07T02:14:22.924Z,66.90
2018-04-07T02:16:51.295Z,66.30
2018-04-07T02:19:18.932Z,66.30
2018-04-07T02:21:47.308Z,66.70
2018-04-07T02:24:23.302Z,67.10
2018-04-07T02:26:51.584Z,66.30
2018-04-07T02:29:21.250Z,66.30
2018-04-07T02:31:48.843Z,66.20
2018-04-07T02:34:17.566Z,66.60
2018-04-07T02:36:45.294Z,66.60
2018-04-07T02:39:15.397Z,65.30
2018-04-07T02:41:43.072Z,65.30
2018-04-07T02:44:11.485Z,64.90
2018-04-07T02:46:39.017Z,64.70
2018-04-07T02:49:07.525Z,65.00
2018-04-07T02:51:44.168Z,65.00
2018-04-07T02:54:13.880Z,65.20
2018-04-07T02:56:45.446Z,64.70
2018-04-07T02:59:13.830Z,64.80
2018-04-07T03:01:41.540Z,64.70
2018-04-07T03:04:09.375Z,65.10
2018-04-07T03:06:37.113Z,65.20
2018-04-07T03:09:06.587Z,73.70
2018-04-07T03:11:35.750Z,73.60
2018-04-07T03:14:03.440Z,74.20
2018-04-07T03:16:31.026Z,65.00
2018-04-07T03:18:59.439Z,64.30
2018-04-07T03:21:27.139Z,64.10
2018-04-07T03:23:54.830Z,64.10
2018-04-07T03:26:23.301Z,65.80
2018-04-07T03:28:50.961Z,64.90
2018-04-07T03:31:18.625Z,65.60
2018-04-07T03:33:46.200Z,66.10
2018-04-07T03:36:14.755Z,66.10
2018-04-07T03:38:42.783Z,66.00
2018-04-07T03:41:10.596Z,65.90
2018-04-07T03:43:38.350Z,76.70
2018-04-07T03:46:06.074Z,67.30
2018-04-07T03:48:33.615Z,65.50
2018-04-07T03:51:01.942Z,65.60
2018-04-07T03:53:29.556Z,65.60
2018-04-07T03:55:57.213Z,65.60
2018-04-07T03:58:26.592Z,65.70
2018-04-07T04:00:57.416Z,65.90
2018-04-07T04:03:24.940Z,65.90
2018-04-07T04:05:53.002Z,66.60
2018-04-07T04:08:20.664Z,66.20
2018-04-07T04:10:48.210Z,66.10
2018-04-07T04:13:15.884Z,66.50
2018-04-07T04:15:43.485Z,66.40
2018-04-07T04:18:12.831Z,66.00
2018-04-07T04:20:42.498Z,66.40
2018-04-07T04:23:10.629Z,66.20
2018-04-07T04:25:39.928Z,66.60
2018-04-07T04:28:11.585Z,66.80
2018-04-07T04:30:40.546Z,66.60
2018-04-07T04:33:12.986Z,67.50
2018-04-07T04:35:42.148Z,67.40
2018-04-07T04:38:11.346Z,67.90
2018-04-07T04:40:39.314Z,67.40
2018-04-07T04:43:07.364Z,67.80
2018-04-07T04:45:36.890Z,67.00
2018-04-07T04:48:04.860Z,66.90
2018-04-07T04:50:32.981Z,66.50
2018-04-07T04:53:01.091Z,66.10
2018-04-07T04:55:29.074Z,66.40
2018-04-07T05:03:34.693Z,65.80
2018-04-07T05:06:02.728Z,66.20
2018-04-07T05:08:31.106Z,66.20
2018-04-07T05:10:59.383Z,66.60
2018-04-07T05:13:34.830Z,66.30
2018-04-07T05:16:02.796Z,66.60
2018-04-07T05:18:31.176Z,66.40
2018-04-07T05:21:01.296Z,66.60
2018-04-07T05:23:29.367Z,66.50
2018-04-07T05:25:57.336Z,66.90
2018-04-07T05:28:25.303Z,66.30
2018-04-07T05:30:53.580Z,66.40
2018-04-07T05:33:21.652Z,66.20
2018-04-07T05:35:49.417Z,66.00
2018-04-07T05:38:17.527Z,65.70
2018-04-07T05:40:45.524Z,65.70
2018-04-07T05:43:14.348Z,65.50
2018-04-07T05:45:57.231Z,65.50
2018-04-07T05:48:28.916Z,65.90
2018-04-07T05:50:56.995Z,66.00
2018-04-07T06:00:45.490Z,66.20
2018-04-07T06:03:13.356Z,68.40
2018-04-07T06:05:41.774Z,68.30
2018-04-07T06:08:09.709Z,67.80
2018-04-07T06:10:37.673Z,67.10
2018-04-07T06:13:06.160Z,66.70
2018-04-07T06:15:34.300Z,66.90
2018-04-07T06:18:03.116Z,66.00
2018-04-07T06:20:31.056Z,65.90
2018-04-07T06:22:59.053Z,65.20
2018-04-07T06:25:26.819Z,65.20
2018-04-07T06:27:55.403Z,64.90
2018-04-07T06:30:23.372Z,65.00
2018-04-07T06:32:52.364Z,65.20
2018-04-07T06:35:20.498Z,65.50
2018-04-07T06:37:48.405Z,65.50
2018-04-07T06:40:16.371Z,64.90
2018-04-07T06:42:44.270Z,64.60
2018-04-07T06:45:12.464Z,64.00
2018-04-07T06:47:42.939Z,63.50
2018-04-07T06:50:13.997Z,62.80
2018-04-07T06:52:48.278Z,62.20
2018-04-07T06:55:23.370Z,61.50
2018-04-07T06:57:57.589Z,61.30
2018-04-07T07:03:06.924Z,61.70
2018-04-07T07:05:34.701Z,62.40
2018-04-07T07:08:02.934Z,61.00
2018-04-07T07:10:32.430Z,60.30
2018-04-07T07:13:02.473Z,60.10
2018-04-07T07:15:30.069Z,58.90
2018-04-07T07:17:57.690Z,57.90
2018-04-07T07:20:25.400Z,56.50
2018-04-07T07:22:52.921Z,55.80
2018-04-07T07:25:21.841Z,54.70
2018-04-07T07:27:49.468Z,53.80
2018-04-07T07:30:17.091Z,52.30
2018-04-07T07:32:45.547Z,49.60
2018-04-07T07:35:16.082Z,49.50
2018-04-07T07:37:44.476Z,46.80
2018-04-07T07:40:12.787Z,44.60
2018-04-07T07:42:41.520Z,43.90
2018-04-07T07:45:09.150Z,43.70
2018-04-07T07:47:36.760Z,40.30
2018-04-07T07:50:04.370Z,39.00
2018-04-07T07:52:31.940Z,40.40
2018-04-07T07:54:59.526Z,37.70
2018-04-07T07:57:27.083Z,38.10
2018-04-07T07:59:54.648Z,36.50
2018-04-07T08:02:23.678Z,35.20
2018-04-07T08:04:51.304Z,35.10
2018-04-07T08:07:18.875Z,34.50
2018-04-07T08:09:47.199Z,34.80
2018-04-07T08:12:14.714Z,34.10
2018-04-07T08:14:43.093Z,36.50
2018-04-07T08:17:10.593Z,36.20
2018-04-07T08:19:38.144Z,36.30
2018-04-07T08:22:05.673Z,35.30
2018-04-07T08:24:33.944Z,32.70
2018-04-07T08:27:02.227Z,33.40
2018-04-07T08:29:30.497Z,33.10
2018-04-07T08:31:58.772Z,33.10
2018-04-07T08:34:27.056Z,31.20
2018-04-07T08:36:55.319Z,29.70
2018-04-07T08:39:22.842Z,29.60
2018-04-07T08:41:50.324Z,29.50
2018-04-07T08:44:17.866Z,29.10
2018-04-07T08:46:45.346Z,29.70
2018-04-07T08:49:12.853Z,30.00
2018-04-07T08:51:40.346Z,29.30
2018-04-07T08:54:07.932Z,29.90
2018-04-07T08:56:36.190Z,27.10
2018-04-07T08:59:03.684Z,26.90
2018-04-07T09:01:31.950Z,26.70
2018-04-07T09:04:00.216Z,27.00
2018-04-07T09:06:27.821Z,27.10
2018-04-07T09:08:55.310Z,27.20
2018-04-07T09:11:23.538Z,25.60
2018-04-07T09:13:51.370Z,25.80
2018-04-07T09:16:18.896Z,25.20
2018-04-07T09:18:46.394Z,25.90
2018-04-07T09:21:14.661Z,25.50
2018-04-07T09:23:42.168Z,25.50
2018-04-07T09:26:09.677Z,25.70
2018-04-07T09:28:37.376Z,25.00
2018-04-07T09:31:10.441Z,23.90
2018-04-07T09:33:38.139Z,24.30
2018-04-07T09:36:05.647Z,24.80
2018-04-07T09:38:33.157Z,24.70
2018-04-07T09:41:00.654Z,24.00
2018-04-07T09:43:28.200Z,23.80
2018-04-07T09:45:55.703Z,24.20
2018-04-07T09:48:23.989Z,24.10
2018-04-07T09:50:53.330Z,22.80
2018-04-07T09:53:20.823Z,22.80
2018-04-07T09:55:48.377Z,23.70
2018-04-07T09:58:16.748Z,24.10
2018-04-07T10:00:47.112Z,24.00
2018-04-07T10:03:21.872Z,23.10
2018-04-07T10:05:50.302Z,23.60
2018-04-07T10:08:19.664Z,23.80
2018-04-07T10:10:47.180Z,21.30
2018-04-07T10:13:14.684Z,22.30
2018-04-07T10:15:42.184Z,22.50
2018-04-07T10:18:10.489Z,22.50
2018-04-07T10:20:37.984Z,22.50
2018-04-07T10:23:05.501Z,21.60
2018-04-07T10:25:32.997Z,21.60
2018-04-07T10:28:00.515Z,20.10
2018-04-07T10:30:28.022Z,22.40
2018-04-07T10:32:55.548Z,21.20
2018-04-07T10:35:23.071Z,20.10
2018-04-07T10:37:51.420Z,19.90
2018-04-07T10:40:18.960Z,19.90
2018-04-07T10:42:46.469Z,18.50
2018-04-07T10:45:14.763Z,22.90
2018-04-07T10:47:42.394Z,23.10
2018-04-07T10:50:11.804Z,19.20
2018-04-07T10:52:40.163Z,18.60
2018-04-07T10:55:07.613Z,18.60
2018-04-07T10:57:35.902Z,21.90
2018-04-07T11:00:03.397Z,21.50
2018-04-07T11:02:31.097Z,19.70
2018-04-07T11:04:58.718Z,20.20
2018-04-07T11:07:26.244Z,19.30
2018-04-07T11:09:53.727Z,19.40
2018-04-07T11:12:21.227Z,18.90
2018-04-07T11:14:48.802Z,19.30
2018-04-07T11:17:16.328Z,20.90
2018-04-07T11:19:43.863Z,20.30
2018-04-07T11:22:11.440Z,20.00
2018-04-07T11:24:38.949Z,19.70
2018-04-07T11:27:06.451Z,19.60
2018-04-07T11:29:33.972Z,20.70
2018-04-07T11:32:02.270Z,19.80
2018-04-07T11:34:30.513Z,19.90
2018-04-07T11:36:58.039Z,19.80
2018-04-07T11:39:25.523Z,19.20
2018-04-07T11:41:53.038Z,18.80
2018-04-07T11:44:20.536Z,18.60
2018-04-07T11:46:48.106Z,19.10
2018-04-07T11:49:15.602Z,17.70
2018-04-07T11:51:43.090Z,17.60
2018-04-07T11:54:10.591Z,18.50
2018-04-07T11:56:38.846Z,17.70
2018-04-07T11:59:06.351Z,17.60
2018-04-07T12:01:33.958Z,18.30
2018-04-07T12:04:01.480Z,18.80
2018-04-07T12:06:28.995Z,17.50
2018-04-07T12:08:56.518Z,17.20
2018-04-07T12:11:24.086Z,17.90
2018-04-07T12:13:51.551Z,17.50
2018-04-07T12:16:19.075Z,17.00
2018-04-07T12:18:46.599Z,18.50
2018-04-07T12:21:14.897Z,17.90
2018-04-07T12:23:42.428Z,17.80
2018-04-07T12:26:09.966Z,17.20
2018-04-07T12:28:37.459Z,17.70
2018-04-07T12:31:05.734Z,17.80
2018-04-07T12:33:34.008Z,17.20
2018-04-07T12:36:02.424Z,17.20
2018-04-07T12:38:29.929Z,16.80
2018-04-07T12:40:58.188Z,16.80
2018-04-07T12:43:25.683Z,16.90
2018-04-07T12:45:53.942Z,17.90
2018-04-07T12:48:21.455Z,17.80
2018-04-07T12:50:48.958Z,18.10
2018-04-07T12:53:16.490Z,16.50
2018-04-07T12:55:43.994Z,18.60
2018-04-07T12:58:12.288Z,19.50
2018-04-07T13:00:39.767Z,19.80
2018-04-07T13:03:07.426Z,18.30
2018-04-07T13:05:35.692Z,18.50
2018-04-07T13:08:04.791Z,18.10
2018-04-07T13:10:32.303Z,17.80
2018-04-07T13:12:59.799Z,18.60
2018-04-07T13:15:27.303Z,17.80
2018-04-07T13:17:54.790Z,18.20
2018-04-07T13:20:23.075Z,16.30
2018-04-07T13:22:50.584Z,15.70
2018-04-07T13:25:18.078Z,16.90
2018-04-07T13:27:46.345Z,16.20
2018-04-07T13:30:13.851Z,16.30
2018-04-07T13:32:41.377Z,17.70
2018-04-07T13:35:09.644Z,15.60
2018-04-07T13:37:37.924Z,15.20
2018-04-07T13:40:06.200Z,15.80
2018-04-07T13:42:34.487Z,15.40
2018-04-07T13:45:02.757Z,15.40
2018-04-07T13:47:31.052Z,14.50
2018-04-07T13:49:58.573Z,14.50
2018-04-07T13:52:26.077Z,16.70
2018-04-07T13:54:53.669Z,16.00
2018-04-07T13:57:21.190Z,16.10
2018-04-07T13:59:48.708Z,14.30
2018-04-07T14:02:16.191Z,15.20
2018-04-07T14:04:44.459Z,14.40
2018-04-07T14:07:15.860Z,15.40
2018-04-07T14:09:43.412Z,15.40
2018-04-07T14:12:10.951Z,14.50
2018-04-07T14:14:39.019Z,16.40
2018-04-07T14:17:06.571Z,16.30
2018-04-07T14:19:34.130Z,15.30
2018-04-07T14:22:01.936Z,14.40
2018-04-07T14:24:30.290Z,14.70
2018-04-07T14:26:57.812Z,14.70
2018-04-07T14:29:26.128Z,14.10
2018-04-07T14:31:53.678Z,14.00
2018-04-07T14:34:21.194Z,14.40
2018-04-07T14:36:50.304Z,12.90
2018-04-07T14:39:18.736Z,12.60
2018-04-07T14:41:46.240Z,12.50
2018-04-07T14:44:14.526Z,13.60
2018-04-07T14:46:42.853Z,14.40
2018-04-07T14:49:11.114Z,12.00
2018-04-07T14:51:38.581Z,12.10
2018-04-07T14:54:06.077Z,13.10
2018-04-07T14:56:33.570Z,13.30
2018-04-07T14:59:01.071Z,13.60
2018-04-07T15:01:28.568Z,13.70
2018-04-07T15:03:56.852Z,13.20
2018-04-07T15:06:25.114Z,11.10
2018-04-07T15:08:52.605Z,11.10
2018-04-07T15:11:21.838Z,11.50
2018-04-07T15:13:49.472Z,11.00
2018-04-07T15:16:17.019Z,14.70
2018-04-07T15:18:44.546Z,15.60
2018-04-07T15:21:12.049Z,16.70
2018-04-07T15:23:39.566Z,16.00
2018-04-07T15:26:07.815Z,15.90
2018-04-07T15:28:35.347Z,15.90
2018-04-07T15:31:02.836Z,16.10
2018-04-07T15:33:30.384Z,16.10
2018-04-07T15:35:57.909Z,16.40
2018-04-07T15:38:25.415Z,16.50
2018-04-07T15:40:52.927Z,16.80
2018-04-07T15:43:20.438Z,17.00
2018-04-07T15:45:47.964Z,16.80
2018-04-07T15:48:15.456Z,17.10
2018-04-07T15:50:42.990Z,17.90
2018-04-07T15:53:11.249Z,16.60
2018-04-07T15:55:38.844Z,17.20
2018-04-07T15:58:06.380Z,16.30
2018-04-07T16:00:33.891Z,16.20
2018-04-07T16:03:01.562Z,16.10
2018-04-07T16:05:29.063Z,16.20
2018-04-07T16:07:56.576Z,15.60
2018-04-07T16:10:24.074Z,15.50
2018-04-07T16:12:51.596Z,15.40
2018-04-07T16:15:19.117Z,15.60
2018-04-07T16:17:46.726Z,15.30
2018-04-07T16:20:14.234Z,15.40
2018-04-07T16:22:41.737Z,15.10
2018-04-07T16:25:09.290Z,15.60
2018-04-07T16:27:37.602Z,16.00
2018-04-07T16:30:06.044Z,15.50
2018-04-07T16:32:33.530Z,16.20
2018-04-07T16:35:01.039Z,18.00
2018-04-07T16:37:29.321Z,22.10
2018-04-07T16:39:57.591Z,23.90
2018-04-07T16:42:25.868Z,24.80
2018-04-07T16:44:54.187Z,25.40
2018-04-07T16:47:21.817Z,24.70
2018-04-07T16:49:49.310Z,26.10
2018-04-07T16:52:16.921Z,25.90
2018-04-07T16:54:44.437Z,26.00
2018-04-07T16:57:11.960Z,26.10
2018-04-07T16:59:39.460Z,26.10
2018-04-07T17:02:06.995Z,26.20
2018-04-07T17:04:34.590Z,26.50
2018-04-07T17:07:02.062Z,26.90
2018-04-07T17:09:29.592Z,27.10
2018-04-07T17:11:57.090Z,27.00
2018-04-07T17:14:25.637Z,27.30
2018-04-07T17:16:53.132Z,27.20
2018-04-07T17:19:21.455Z,28.20
2018-04-07T17:21:48.971Z,28.20
2018-04-07T17:24:17.260Z,28.60
2018-04-07T17:26:44.762Z,28.50
2018-04-07T17:29:12.271Z,28.90
2018-04-07T17:31:40.533Z,29.70
2018-04-07T17:34:08.791Z,30.90
2018-04-07T17:36:36.301Z,30.90
2018-04-07T17:39:03.798Z,30.00
2018-04-07T17:41:31.311Z,30.50
2018-04-07T17:43:58.827Z,30.70
2018-04-07T17:46:26.351Z,31.30
2018-04-07T17:49:05.989Z,32.30
2018-04-07T17:51:22.160Z,34.00
2018-04-07T17:53:49.819Z,33.90
2018-04-07T17:56:18.889Z,33.90
2018-04-07T17:58:47.176Z,34.80
2018-04-07T18:01:15.444Z,34.60
2018-04-07T18:03:42.952Z,34.50
2018-04-07T18:06:10.524Z,35.50
2018-04-07T18:08:38.041Z,35.40
2018-04-07T18:11:05.570Z,36.50
2018-04-07T18:13:33.097Z,36.30
2018-04-07T18:16:00.577Z,36.60
2018-04-07T18:18:28.069Z,37.00
2018-04-07T18:20:56.332Z,38.10
2018-04-07T18:23:24.586Z,38.40
2018-04-07T18:25:52.115Z,38.40
2018-04-07T18:28:19.611Z,38.70
2018-04-07T18:30:47.160Z,39.10
2018-04-07T18:33:14.661Z,39.20
2018-04-07T18:35:42.977Z,40.30
2018-04-07T18:38:10.473Z,40.20
2018-04-07T18:40:38.737Z,40.90
2018-04-07T18:43:06.261Z,40.40
2018-04-07T18:45:33.752Z,40.90
2018-04-07T18:48:01.237Z,41.30
2018-04-07T18:50:29.519Z,41.40
2018-04-07T18:52:57.799Z,41.50
2018-04-07T18:55:25.296Z,41.50
2018-04-07T18:57:52.840Z,41.50
2018-04-07T19:00:20.368Z,41.70
2018-04-07T19:02:48.614Z,42.20
2018-04-07T19:05:16.232Z,42.10
2018-04-07T19:07:43.765Z,42.50
2018-04-07T19:10:11.271Z,42.70
2018-04-07T19:12:38.760Z,42.50
2018-04-07T19:15:06.262Z,42.40
2018-04-07T19:17:33.746Z,42.30
2018-04-07T19:20:01.258Z,42.40
2018-04-07T19:22:29.505Z,42.60
2018-04-07T19:24:57.005Z,42.50
2018-04-07T19:27:24.509Z,42.40
2018-04-07T19:29:52.009Z,42.50
2018-04-07T19:32:19.502Z,42.60
2018-04-07T19:34:46.988Z,42.80
2018-04-07T19:37:15.266Z,43.20
2018-04-07T19:39:42.761Z,43.20
2018-04-07T19:42:10.282Z,43.30
2018-04-07T19:44:37.778Z,43.50
2018-04-07T19:47:05.313Z,43.40
2018-04-07T19:49:32.787Z,43.50
2018-04-07T19:52:01.052Z,43.40
2018-04-07T19:54:29.364Z,43.90
2018-04-07T19:56:56.864Z,43.80
2018-04-07T19:59:24.377Z,43.70
2018-04-07T20:01:51.875Z,44.00
2018-04-07T20:04:19.387Z,44.00
2018-04-07T20:06:46.896Z,44.60
2018-04-07T20:09:14.395Z,44.80
2018-04-07T20:11:41.917Z,45.00
2018-04-07T20:14:09.412Z,45.20
2018-04-07T20:16:36.923Z,45.20
2018-04-07T20:19:04.414Z,44.80
2018-04-07T20:21:32.701Z,45.10
2018-04-07T20:24:00.976Z,45.30
2018-04-07T20:26:29.230Z,45.10
2018-04-07T20:28:56.722Z,45.10
2018-04-07T20:31:24.243Z,45.50
2018-04-07T20:33:51.807Z,45.90
2018-04-07T20:36:19.308Z,46.30
2018-04-07T20:38:46.807Z,46.90
2018-04-07T20:41:14.328Z,46.40
2018-04-07T20:43:41.860Z,46.50
2018-04-07T20:46:10.120Z,47.00
2018-04-07T20:48:37.852Z,47.00
2018-04-07T20:51:05.344Z,48.00
2018-04-07T20:53:33.665Z,47.90
2018-04-07T20:56:01.156Z,47.80
2018-04-07T20:58:28.654Z,47.90
2018-04-07T21:00:56.196Z,48.00
2018-04-07T21:03:24.452Z,48.10
2018-04-07T21:05:51.958Z,48.00
2018-04-07T21:08:19.520Z,48.10
2018-04-07T21:10:47.035Z,48.10
2018-04-07T21:13:15.287Z,48.40
2018-04-07T21:15:42.792Z,48.40
2018-04-07T21:18:11.063Z,48.80
2018-04-07T21:20:39.324Z,49.10
2018-04-07T21:23:06.834Z,49.10
2018-04-07T21:25:34.323Z,48.90
2018-04-07T21:28:01.819Z,49.30
2018-04-07T21:30:30.067Z,49.50
2018-04-07T21:32:57.576Z,49.50
2018-04-07T21:35:25.059Z,49.90
2018-04-07T21:37:52.554Z,50.40
2018-04-07T21:40:21.002Z,51.40
2018-04-07T21:42:48.526Z,50.70
2018-04-07T21:45:16.020Z,50.90
2018-04-07T21:47:43.506Z,50.70
2018-04-07T21:50:11.804Z,51.10
2018-04-07T21:52:39.291Z,50.80
2018-04-07T21:55:06.793Z,51.30
2018-04-07T21:57:34.284Z,51.30
2018-04-07T22:00:01.824Z,51.90
2018-04-07T22:02:30.088Z,52.30
2018-04-07T22:04:57.604Z,52.20
2018-04-07T22:07:25.149Z,52.40
2018-04-07T22:09:52.650Z,52.40
2018-04-07T22:12:20.160Z,52.20
2018-04-07T22:14:47.728Z,52.70
2018-04-07T22:17:15.253Z,52.70
2018-04-07T22:19:43.536Z,52.90
2018-04-07T22:22:11.819Z,52.90
2018-04-07T22:24:39.320Z,52.80
2018-04-07T22:27:06.828Z,52.90
2018-04-07T22:29:35.079Z,53.30
2018-04-07T22:32:02.578Z,53.20
2018-04-07T22:34:30.212Z,53.60
2018-04-07T22:36:58.454Z,53.90
2018-04-07T22:39:25.964Z,53.90
2018-04-07T22:41:53.456Z,53.90
2018-04-07T22:44:20.960Z,54.10
2018-04-07T22:46:49.220Z,54.60
2018-04-07T22:49:16.723Z,54.60
2018-04-07T22:51:44.199Z,54.90
2018-04-07T22:54:11.703Z,55.00
2018-04-07T22:56:39.208Z,55.10
2018-04-07T22:59:06.725Z,54.60
2018-04-07T23:01:34.994Z,55.80
2018-04-07T23:04:02.474Z,55.80
2018-04-07T23:06:29.985Z,56.20
2018-04-07T23:08:57.496Z,56.00
2018-04-07T23:11:25.004Z,55.80
2018-04-07T23:13:52.496Z,55.70
2018-04-07T23:16:20.784Z,56.20
2018-04-07T23:18:48.271Z,56.10
2018-04-07T23:21:15.789Z,55.90
2018-04-07T23:23:44.048Z,56.40
2018-04-07T23:26:11.547Z,56.30
2018-04-07T23:28:39.055Z,56.00
2018-04-07T23:31:07.442Z,56.10
2018-04-07T23:33:34.941Z,56.30
2018-04-07T23:36:02.424Z,56.00
2018-04-07T23:38:29.929Z,55.90
2018-04-07T23:40:58.192Z,56.20
2018-04-07T23:43:25.836Z,56.10
2018-04-07T23:45:53.375Z,55.90
2018-04-07T23:48:20.844Z,55.60
2018-04-07T23:50:48.348Z,56.10
2018-04-07T23:53:16.594Z,56.30
2018-04-07T23:55:44.106Z,56.20
2018-04-07T23:58:11.590Z,56.30
